createdAt,value
2018-03-20T00:00:22.785Z,56.30
2018-03-20T00:02:50.230Z,57.30
2018-03-20T00:05:18.434Z,58.80
2018-03-20T00:07:45.869Z,58.80
2018-03-20T00:10:13.315Z,59.20
2018-03-20T00:12:41.515Z,60.00
2018-03-20T00:15:08.932Z,60.00
2018-03-20T00:17:37.168Z,60.80
2018-03-20T00:20:04.607Z,60.80
2018-03-20T00:22:32.039Z,61.10
2018-03-20T00:25:00.356Z,61.70
2018-03-20T00:27:27.784Z,61.70
2018-03-20T00:29:55.216Z,61.80
2018-03-20T00:32:23.450Z,62.30
2018-03-20T00:34:50.876Z,62.30
2018-03-20T00:37:18.304Z,62.50
2018-03-20T00:39:46.530Z,63.00
2018-03-20T00:42:13.960Z,62.90
2018-03-20T00:44:41.388Z,63.30
2018-03-20T00:47:09.623Z,63.60
2018-03-20T00:49:37.073Z,63.60
2018-03-20T00:52:04.537Z,63.70
2018-03-20T00:54:31.981Z,63.90
2018-03-20T00:56:59.409Z,64.10
2018-03-20T00:59:27.600Z,64.50
2018-03-20T01:01:55.051Z,64.50
2018-03-20T01:04:22.474Z,64.50
2018-03-20T01:06:50.697Z,64.90
2018-03-20T01:09:18.160Z,64.90
2018-03-20T01:11:45.589Z,65.00
2018-03-20T01:14:13.015Z,65.10
2018-03-20T01:16:40.460Z,65.30
2018-03-20T01:19:07.999Z,65.50
2018-03-20T01:21:35.449Z,65.80
2018-03-20T01:24:02.888Z,65.90
2018-03-20T01:26:30.304Z,66.00
2018-03-20T01:28:57.825Z,66.10
2018-03-20T01:31:25.258Z,66.30
2018-03-20T01:33:52.688Z,66.50
2018-03-20T01:36:20.910Z,66.90
2018-03-20T01:38:48.352Z,66.90
2018-03-20T01:41:15.790Z,67.10
2018-03-20T01:43:43.221Z,67.20
2018-03-20T01:46:11.425Z,67.70
2018-03-20T01:48:38.884Z,67.80
2018-03-20T01:51:06.348Z,67.90
2018-03-20T01:53:33.798Z,68.20
2018-03-20T01:56:01.222Z,68.70
2018-03-20T01:58:29.409Z,69.20
2018-03-20T02:00:56.867Z,69.20
2018-03-20T02:03:24.292Z,69.50
2018-03-20T02:05:52.507Z,70.40
2018-03-20T02:08:19.948Z,70.40
2018-03-20T02:10:47.374Z,70.80
2018-03-20T02:13:14.900Z,71.00
2018-03-20T02:15:42.344Z,71.40
2018-03-20T02:18:09.768Z,71.60
2018-03-20T02:20:37.979Z,72.30
2018-03-20T02:23:05.412Z,72.30
2018-03-20T02:25:32.921Z,72.70
2018-03-20T02:28:00.353Z,73.10
2018-03-20T02:30:27.785Z,73.30
2018-03-20T02:32:55.277Z,73.50
2018-03-20T02:35:22.719Z,73.80
2018-03-20T02:37:50.157Z,74.10
2018-03-20T02:40:17.638Z,74.30
2018-03-20T02:42:45.076Z,74.40
2018-03-20T02:45:12.514Z,74.70
2018-03-20T02:47:40.728Z,75.20
2018-03-20T02:50:08.192Z,75.20
2018-03-20T02:52:35.645Z,75.40
2018-03-20T02:55:03.068Z,75.60
2018-03-20T02:57:30.559Z,75.80
2018-03-20T02:59:58.016Z,76.10
2018-03-20T03:02:25.454Z,76.40
2018-03-20T03:04:52.932Z,76.60
2018-03-20T03:07:20.387Z,76.90
2018-03-20T03:09:47.833Z,77.20
2018-03-20T03:12:15.303Z,77.60
2018-03-20T03:14:42.752Z,77.80
2018-03-20T03:17:10.158Z,78.10
2018-03-20T03:19:38.380Z,78.80
2018-03-20T03:22:05.936Z,78.60
2018-03-20T03:24:33.340Z,78.70
2018-03-20T03:27:00.859Z,78.90
2018-03-20T03:29:28.325Z,79.10
2018-03-20T03:31:55.748Z,79.30
2018-03-20T03:34:23.177Z,79.60
2018-03-20T03:36:51.380Z,80.30
2018-03-20T03:39:18.812Z,80.30
2018-03-20T03:41:47.009Z,80.80
2018-03-20T03:44:14.456Z,80.80
2018-03-20T03:46:42.645Z,81.20
2018-03-20T03:49:10.085Z,81.20
2018-03-20T03:51:38.276Z,81.60
2018-03-20T03:54:05.708Z,81.60
2018-03-20T03:56:33.924Z,82.10
2018-03-20T03:59:01.388Z,82.10
2018-03-20T04:01:28.862Z,82.30
2018-03-20T04:03:56.294Z,82.60
2018-03-20T04:06:23.749Z,83.00
2018-03-20T04:08:51.172Z,83.40
2018-03-20T04:11:19.397Z,84.10
2018-03-20T04:13:46.854Z,84.10
2018-03-20T04:16:14.305Z,84.60
2018-03-20T04:18:41.746Z,84.80
2018-03-20T04:21:09.213Z,85.10
2018-03-20T04:23:36.635Z,85.40
2018-03-20T04:26:04.857Z,86.00
2018-03-20T04:28:32.294Z,85.90
2018-03-20T04:30:59.715Z,86.20
2018-03-20T04:33:27.941Z,86.80
2018-03-20T04:35:55.489Z,86.80
2018-03-20T04:38:22.916Z,86.90
2018-03-20T04:40:51.106Z,87.20
2018-03-20T04:43:18.588Z,87.20
2018-03-20T04:45:46.137Z,87.30
2018-03-20T04:48:13.596Z,87.50
2018-03-20T04:50:41.072Z,87.50
2018-03-20T04:53:08.610Z,87.60
2018-03-20T04:55:36.017Z,87.60
2018-03-20T04:58:04.249Z,88.20
2018-03-20T05:00:31.676Z,87.50
2018-03-20T05:02:59.161Z,87.50
2018-03-20T05:05:26.620Z,87.60
2018-03-20T05:07:54.049Z,87.70
2018-03-20T05:10:21.544Z,87.80
2018-03-20T05:12:49.006Z,87.90
2018-03-20T05:15:16.424Z,87.90
2018-03-20T05:17:54.672Z,87.90
2018-03-20T05:20:27.924Z,87.80
2018-03-20T05:23:01.072Z,87.90
2018-03-20T05:25:28.496Z,87.90
2018-03-20T05:27:55.948Z,88.60
2018-03-20T05:30:23.406Z,88.00
2018-03-20T05:32:50.825Z,87.90
2018-03-20T05:35:19.022Z,87.90
2018-03-20T05:37:46.461Z,87.90
2018-03-20T05:40:14.667Z,87.90
2018-03-20T05:42:42.088Z,87.80
2018-03-20T05:45:10.293Z,88.00
2018-03-20T05:51:10.140Z,88.20
2018-03-20T05:53:37.540Z,87.50
2018-03-20T05:56:04.988Z,87.40
2018-03-20T05:58:32.644Z,86.60
2018-03-20T06:01:00.788Z,86.80
2018-03-20T06:03:28.200Z,86.80
2018-03-20T06:05:56.408Z,86.50
2018-03-20T06:08:23.829Z,86.60
2018-03-20T06:10:52.026Z,86.40
2018-03-20T06:13:19.461Z,86.30
2018-03-20T06:15:47.667Z,86.10
2018-03-20T06:18:15.081Z,86.00
2018-03-20T06:20:42.600Z,86.00
2018-03-20T06:23:10.079Z,85.90
2018-03-20T06:25:37.547Z,85.70
2018-03-20T06:28:04.990Z,85.60
2018-03-20T06:30:32.448Z,85.60
2018-03-20T06:32:59.881Z,85.50
2018-03-20T06:35:27.438Z,85.40
2018-03-20T06:37:54.874Z,85.30
2018-03-20T06:40:22.361Z,85.20
2018-03-20T06:42:49.833Z,85.90
2018-03-20T06:45:17.372Z,85.20
2018-03-20T06:47:44.777Z,85.20
2018-03-20T06:50:12.293Z,85.20
2018-03-20T06:52:39.742Z,85.20
2018-03-20T06:55:07.216Z,85.20
2018-03-20T06:57:34.793Z,85.30
2018-03-20T07:00:02.327Z,85.30
2018-03-20T07:02:29.794Z,85.30
2018-03-20T07:04:57.253Z,85.40
2018-03-20T07:07:24.712Z,85.30
2018-03-20T07:09:52.142Z,85.30
2018-03-20T07:12:19.617Z,85.20
2018-03-20T07:14:47.049Z,85.20
2018-03-20T07:17:14.478Z,85.00
2018-03-20T07:19:42.685Z,84.70
2018-03-20T07:22:10.117Z,84.80
2018-03-20T07:24:38.329Z,84.40
2018-03-20T07:27:05.783Z,84.40
2018-03-20T07:29:33.337Z,84.10
2018-03-20T07:32:00.835Z,83.70
2018-03-20T07:34:28.404Z,83.30
2018-03-20T07:36:55.810Z,82.90
2018-03-20T07:39:23.382Z,82.30
2018-03-20T07:41:50.814Z,81.90
2018-03-20T07:44:18.304Z,81.50
2018-03-20T07:46:45.759Z,81.00
2018-03-20T07:49:13.201Z,80.50
2018-03-20T07:51:40.675Z,80.10
2018-03-20T07:54:08.241Z,79.50
2018-03-20T07:56:35.693Z,79.10
2018-03-20T07:59:03.137Z,78.70
2018-03-20T08:01:30.610Z,78.50
2018-03-20T08:03:58.074Z,78.00
2018-03-20T08:06:25.501Z,77.50
2018-03-20T08:08:52.968Z,76.80
2018-03-20T08:11:20.419Z,76.60
2018-03-20T08:13:47.902Z,76.00
2018-03-20T08:16:16.065Z,74.80
2018-03-20T08:18:43.513Z,74.80
2018-03-20T08:21:10.950Z,74.50
2018-03-20T08:23:38.376Z,73.90
2018-03-20T08:26:06.610Z,73.30
2018-03-20T08:28:34.288Z,73.20
2018-03-20T08:31:01.737Z,72.80
2018-03-20T08:33:29.185Z,72.40
2018-03-20T08:35:56.629Z,71.80
2018-03-20T08:38:24.098Z,72.10
2018-03-20T08:40:51.536Z,71.10
2018-03-20T08:43:18.960Z,70.80
2018-03-20T08:45:47.214Z,69.60
2018-03-20T08:48:14.736Z,69.60
2018-03-20T08:50:42.196Z,68.90
2018-03-20T08:53:09.658Z,68.30
2018-03-20T08:55:37.108Z,67.80
2018-03-20T08:58:04.558Z,67.50
2018-03-20T09:00:31.983Z,67.10
2018-03-20T09:03:00.170Z,66.50
2018-03-20T09:05:27.584Z,66.50
2018-03-20T09:07:55.113Z,65.50
2018-03-20T09:10:22.595Z,65.00
2018-03-20T09:12:50.008Z,64.60
2018-03-20T09:15:17.483Z,63.60
2018-03-20T09:17:44.908Z,62.80
2018-03-20T09:20:13.117Z,62.00
2018-03-20T09:22:40.566Z,61.90
2018-03-20T09:25:08.123Z,61.10
2018-03-20T09:27:35.548Z,60.30
2018-03-20T09:30:02.998Z,60.00
2018-03-20T09:32:31.208Z,59.10
2018-03-20T09:34:58.632Z,59.00
2018-03-20T09:37:26.832Z,58.50
2018-03-20T09:39:54.310Z,58.40
2018-03-20T09:42:21.796Z,58.40
2018-03-20T09:44:49.325Z,58.10
2018-03-20T09:47:16.882Z,57.60
2018-03-20T09:49:44.349Z,56.70
2018-03-20T09:52:11.787Z,56.50
2018-03-20T09:54:39.251Z,56.50
2018-03-20T09:57:06.658Z,56.30
2018-03-20T09:59:34.098Z,56.20
2018-03-20T10:02:01.545Z,56.20
2018-03-20T10:04:28.961Z,55.70
2018-03-20T10:06:56.390Z,55.60
2018-03-20T10:09:23.916Z,55.10
2018-03-20T10:11:51.356Z,54.50
2018-03-20T10:14:18.812Z,54.20
2018-03-20T10:16:46.249Z,54.20
2018-03-20T10:19:13.730Z,54.00
2018-03-20T10:21:41.180Z,53.90
2018-03-20T10:24:08.603Z,53.40
2018-03-20T10:26:36.809Z,52.40
2018-03-20T10:29:04.277Z,52.40
2018-03-20T10:31:31.802Z,52.50
2018-03-20T10:33:59.288Z,52.60
2018-03-20T10:36:26.856Z,52.60
2018-03-20T10:38:54.311Z,53.00
2018-03-20T10:41:21.728Z,53.40
2018-03-20T10:43:49.233Z,53.70
2018-03-20T10:46:17.384Z,53.80
2018-03-20T10:48:44.814Z,53.70
2018-03-20T10:51:13.001Z,53.60
2018-03-20T10:53:40.518Z,53.60
2018-03-20T10:56:07.981Z,53.60
2018-03-20T10:58:36.374Z,53.20
2018-03-20T11:01:05.728Z,53.90
2018-03-20T11:03:33.156Z,52.90
2018-03-20T11:06:00.584Z,52.50
2018-03-20T11:08:28.094Z,52.30
2018-03-20T11:10:55.549Z,51.90
2018-03-20T11:13:23.004Z,52.00
2018-03-20T11:15:50.461Z,52.10
2018-03-20T11:18:17.900Z,51.70
2018-03-20T11:20:45.338Z,51.20
2018-03-20T11:23:12.820Z,50.10
2018-03-20T11:25:40.263Z,49.10
2018-03-20T11:28:07.700Z,48.40
2018-03-20T11:30:35.179Z,47.50
2018-03-20T11:33:02.607Z,47.30
2018-03-20T11:35:30.854Z,47.00
2018-03-20T11:37:58.293Z,47.00
2018-03-20T11:40:25.745Z,46.60
2018-03-20T11:42:53.168Z,46.10
2018-03-20T11:45:20.605Z,45.80
2018-03-20T11:47:48.821Z,45.30
2018-03-20T11:50:16.304Z,45.20
2018-03-20T11:52:43.746Z,44.80
2018-03-20T11:55:11.169Z,44.20
2018-03-20T11:57:38.588Z,43.40
2018-03-20T12:00:06.037Z,43.60
2018-03-20T12:02:33.468Z,43.60
2018-03-20T12:05:00.900Z,43.20
2018-03-20T12:07:28.337Z,43.00
2018-03-20T12:09:56.543Z,42.90
2018-03-20T12:12:23.973Z,42.90
2018-03-20T12:14:52.278Z,42.50
2018-03-20T12:17:19.743Z,42.50
2018-03-20T12:19:47.207Z,42.00
2018-03-20T12:22:15.363Z,41.70
2018-03-20T12:24:42.785Z,41.70
2018-03-20T12:27:10.970Z,41.40
2018-03-20T12:29:38.408Z,41.40
2018-03-20T12:32:06.626Z,41.00
2018-03-20T12:34:34.089Z,41.00
2018-03-20T12:37:01.542Z,40.50
2018-03-20T12:39:28.944Z,40.40
2018-03-20T12:41:56.465Z,40.20
2018-03-20T12:44:23.907Z,39.80
2018-03-20T12:46:51.325Z,39.30
2018-03-20T12:49:19.520Z,40.00
2018-03-20T12:51:47.721Z,39.30
2018-03-20T12:54:15.187Z,39.30
2018-03-20T12:56:42.609Z,38.80
2018-03-20T12:59:10.092Z,38.80
2018-03-20T13:01:37.517Z,38.60
2018-03-20T13:04:05.726Z,39.20
2018-03-20T13:06:33.164Z,39.10
2018-03-20T13:09:00.648Z,38.80
2018-03-20T13:11:28.063Z,38.40
2018-03-20T13:13:56.376Z,37.60
2018-03-20T13:16:23.833Z,37.60
2018-03-20T13:18:51.254Z,37.40
2018-03-20T13:21:19.455Z,37.70
2018-03-20T13:23:46.876Z,37.60
2018-03-20T13:26:15.072Z,37.00
2018-03-20T13:28:42.494Z,37.00
2018-03-20T13:31:09.925Z,36.60
2018-03-20T13:33:37.364Z,37.10
2018-03-20T13:36:04.813Z,36.30
2018-03-20T13:38:32.289Z,36.20
2018-03-20T13:40:59.975Z,35.70
2018-03-20T13:43:29.030Z,35.80
2018-03-20T13:45:56.589Z,35.70
2018-03-20T13:48:24.148Z,35.50
2018-03-20T13:50:52.699Z,35.10
2018-03-20T13:53:25.461Z,35.30
2018-03-20T13:55:52.897Z,35.30
2018-03-20T13:58:20.531Z,34.70
2018-03-20T14:00:47.940Z,34.80
2018-03-20T14:03:15.377Z,34.60
2018-03-20T14:05:42.804Z,34.40
2018-03-20T14:08:10.262Z,34.60
2018-03-20T14:10:37.709Z,34.10
2018-03-20T14:13:05.185Z,33.90
2018-03-20T14:15:32.637Z,34.50
2018-03-20T14:18:00.088Z,34.50
2018-03-20T14:20:27.548Z,34.90
2018-03-20T14:22:54.979Z,34.40
2018-03-20T14:25:22.417Z,34.00
2018-03-20T14:27:50.612Z,32.70
2018-03-20T14:30:18.032Z,32.70
2018-03-20T14:32:45.563Z,32.70
2018-03-20T14:35:13.016Z,32.80
2018-03-20T14:37:40.465Z,33.10
2018-03-20T14:40:07.933Z,33.40
2018-03-20T14:42:35.379Z,33.40
2018-03-20T14:45:02.810Z,33.00
2018-03-20T14:47:30.296Z,32.50
2018-03-20T14:49:57.731Z,31.80
2018-03-20T14:52:25.211Z,31.60
2018-03-20T14:54:52.701Z,31.50
2018-03-20T14:57:20.096Z,32.00
2018-03-20T14:59:47.581Z,32.00
2018-03-20T15:02:15.041Z,31.20
2018-03-20T15:04:42.469Z,30.40
2018-03-20T15:07:09.905Z,30.50
2018-03-20T15:09:38.122Z,31.30
2018-03-20T15:12:05.614Z,31.30
2018-03-20T15:14:33.149Z,31.40
2018-03-20T15:17:00.602Z,31.50
2018-03-20T15:19:28.038Z,31.60
2018-03-20T15:21:55.519Z,31.20
2018-03-20T15:24:23.071Z,31.40
2018-03-20T15:26:50.628Z,31.20
2018-03-20T15:29:18.139Z,30.80
2018-03-20T15:31:45.572Z,30.50
2018-03-20T15:34:13.024Z,30.20
2018-03-20T15:36:40.450Z,30.80
2018-03-20T15:39:07.913Z,32.10
2018-03-20T15:41:35.328Z,33.10
2018-03-20T15:44:03.538Z,34.30
2018-03-20T15:46:30.968Z,34.20
2018-03-20T15:48:59.172Z,33.80
2018-03-20T15:51:26.590Z,33.80
2018-03-20T15:53:54.801Z,34.40
2018-03-20T15:56:22.278Z,34.40
2018-03-20T15:58:49.733Z,34.90
2018-03-20T16:01:17.630Z,35.10
2018-03-20T16:03:45.152Z,35.00
2018-03-20T16:06:12.613Z,34.80
2018-03-20T16:08:40.077Z,35.00
2018-03-20T16:11:07.529Z,34.30
2018-03-20T16:13:35.032Z,34.00
2018-03-20T16:16:02.474Z,33.80
2018-03-20T16:18:29.889Z,33.80
2018-03-20T16:20:57.361Z,34.00
2018-03-20T16:23:24.808Z,33.90
2018-03-20T16:25:52.252Z,34.30
2018-03-20T16:28:19.728Z,34.80
2018-03-20T16:30:47.189Z,35.40
2018-03-20T16:33:14.620Z,35.30
2018-03-20T16:35:42.048Z,35.40
2018-03-20T16:38:10.262Z,37.10
2018-03-20T16:40:37.703Z,37.00
2018-03-20T16:43:05.125Z,38.80
2018-03-20T16:45:32.646Z,39.60
2018-03-20T16:48:00.099Z,40.40
2018-03-20T16:50:27.568Z,41.20
2018-03-20T16:52:55.009Z,41.70
2018-03-20T16:55:22.435Z,42.40
2018-03-20T16:57:50.649Z,43.40
2018-03-20T17:00:18.112Z,43.40
2018-03-20T17:02:45.556Z,43.90
2018-03-20T17:05:12.982Z,44.30
2018-03-20T17:07:41.183Z,45.20
2018-03-20T17:10:08.650Z,45.10
2018-03-20T17:12:36.111Z,45.50
2018-03-20T17:15:03.568Z,46.10
2018-03-20T17:17:31.042Z,46.40
2018-03-20T17:19:58.484Z,46.70
2018-03-20T17:22:25.934Z,46.90
2018-03-20T17:24:53.362Z,47.30
2018-03-20T17:27:21.554Z,48.10
2018-03-20T17:29:49.025Z,48.10
2018-03-20T17:32:16.463Z,48.60
2018-03-20T17:34:43.941Z,49.10
2018-03-20T17:37:11.385Z,49.60
2018-03-20T17:39:38.853Z,50.00
2018-03-20T17:42:06.293Z,50.40
2018-03-20T17:44:33.782Z,50.60
2018-03-20T17:47:01.189Z,51.00
2018-03-20T17:49:29.386Z,51.70
2018-03-20T17:51:56.841Z,51.60
2018-03-20T17:54:24.261Z,52.10
2018-03-20T17:56:52.474Z,52.70
2018-03-20T17:59:19.934Z,52.70
2018-03-20T18:01:47.369Z,52.90
2018-03-20T18:04:15.576Z,53.70
2018-03-20T18:06:43.035Z,53.70
2018-03-20T18:09:10.468Z,53.90
2018-03-20T18:11:37.960Z,54.50
2018-03-20T18:14:05.424Z,54.90
2018-03-20T18:16:32.961Z,55.20
2018-03-20T18:19:00.515Z,55.60
2018-03-20T18:21:27.977Z,55.90
2018-03-20T18:23:55.415Z,56.10
2018-03-20T18:26:22.904Z,56.40
2018-03-20T18:28:50.452Z,56.60
2018-03-20T18:31:17.885Z,56.90
2018-03-20T18:33:45.369Z,57.50
2018-03-20T18:36:12.827Z,57.90
2018-03-20T18:38:40.264Z,58.00
2018-03-20T18:41:07.689Z,58.10
2018-03-20T18:43:35.906Z,58.40
2018-03-20T18:46:03.370Z,58.30
2018-03-20T18:48:30.923Z,58.70
2018-03-20T18:50:58.588Z,58.90
2018-03-20T18:53:26.028Z,59.10
2018-03-20T18:55:53.525Z,59.40
2018-03-20T18:58:20.960Z,59.30
2018-03-20T19:00:48.397Z,59.70
2018-03-20T19:03:15.854Z,60.00
2018-03-20T19:05:43.341Z,60.30
2018-03-20T19:08:10.764Z,60.40
2018-03-20T19:10:38.192Z,60.80
2018-03-20T19:13:06.407Z,61.20
2018-03-20T19:15:33.906Z,61.20
2018-03-20T19:18:01.518Z,61.50
2018-03-20T19:20:28.964Z,61.80
2018-03-20T19:22:57.193Z,62.40
2018-03-20T19:25:24.637Z,62.40
2018-03-20T19:27:52.186Z,62.80
2018-03-20T19:30:19.702Z,63.00
2018-03-20T19:32:47.084Z,63.20
2018-03-20T19:35:14.553Z,63.70
2018-03-20T19:37:41.982Z,64.10
2018-03-20T19:40:10.173Z,64.70
2018-03-20T19:42:37.627Z,64.70
2018-03-20T19:45:05.139Z,64.90
2018-03-20T19:47:32.557Z,65.30
2018-03-20T19:49:59.998Z,65.50
2018-03-20T19:52:27.473Z,66.00
2018-03-20T19:54:55.032Z,66.40
2018-03-20T19:57:22.457Z,66.70
2018-03-20T19:59:50.670Z,67.50
2018-03-20T20:02:18.088Z,67.50
2018-03-20T20:04:46.405Z,68.30
2018-03-20T20:07:13.866Z,68.30
2018-03-20T20:09:41.335Z,68.70
2018-03-20T20:12:08.824Z,69.30
2018-03-20T20:14:36.236Z,69.80
2018-03-20T20:17:03.672Z,70.40
2018-03-20T20:19:31.103Z,70.80
2018-03-20T20:21:59.331Z,72.00
2018-03-20T20:24:26.774Z,72.00
2018-03-20T20:26:54.269Z,72.40
2018-03-20T20:29:21.706Z,72.90
2018-03-20T20:31:49.152Z,73.30
2018-03-20T20:34:16.640Z,73.70
2018-03-20T20:36:44.197Z,74.10
2018-03-20T20:39:11.621Z,74.60
2018-03-20T20:41:39.072Z,75.10
2018-03-20T20:44:06.495Z,75.70
2018-03-20T20:46:34.702Z,76.10
2018-03-20T20:49:02.138Z,76.00
2018-03-20T20:51:29.568Z,76.30
2018-03-20T20:53:56.988Z,76.50
2018-03-20T20:56:24.613Z,76.90
2018-03-20T20:58:52.787Z,77.70
2018-03-20T21:01:20.277Z,77.70
2018-03-20T21:03:47.725Z,77.90
2018-03-20T21:06:15.160Z,78.30
2018-03-20T21:08:43.361Z,79.00
2018-03-20T21:11:10.798Z,79.00
2018-03-20T21:13:38.375Z,79.20
2018-03-20T21:16:05.780Z,79.40
2018-03-20T21:18:33.388Z,79.40
2018-03-20T21:21:00.844Z,79.60
2018-03-20T21:23:28.290Z,79.70
2018-03-20T21:25:56.526Z,80.00
2018-03-20T21:28:24.206Z,80.00
2018-03-20T21:30:52.408Z,80.10
2018-03-20T21:33:19.881Z,80.20
2018-03-20T21:35:47.340Z,80.20
2018-03-20T21:38:14.801Z,80.30
2018-03-20T21:40:42.242Z,80.30
2018-03-20T21:43:09.710Z,80.30
2018-03-20T21:45:37.133Z,80.30
2018-03-20T21:48:04.569Z,80.50
2018-03-20T21:50:32.764Z,81.00
2018-03-20T21:53:00.976Z,80.90
2018-03-20T21:55:28.465Z,80.80
2018-03-20T21:57:55.888Z,80.80
2018-03-20T22:00:23.345Z,80.70
2018-03-20T22:02:50.801Z,81.00
2018-03-20T22:05:18.261Z,81.30
2018-03-20T22:07:45.704Z,81.30
2018-03-20T22:10:13.169Z,81.30
2018-03-20T22:12:40.632Z,81.20
2018-03-20T22:15:08.089Z,81.30
2018-03-20T22:17:35.539Z,81.30
2018-03-20T22:20:02.968Z,81.60
2018-03-20T22:22:30.449Z,81.70
2018-03-20T22:24:57.869Z,81.80
2018-03-20T22:27:26.096Z,82.00
2018-03-20T22:29:53.536Z,82.00
2018-03-20T22:32:20.969Z,82.00
2018-03-20T22:34:49.171Z,82.00
2018-03-20T22:37:16.586Z,82.00
2018-03-20T22:39:44.074Z,82.00
2018-03-20T22:42:11.490Z,82.00
2018-03-20T22:44:38.925Z,82.20
2018-03-20T22:47:06.360Z,82.40
2018-03-20T22:49:33.821Z,82.50
2018-03-20T22:52:01.275Z,82.50
2018-03-20T22:54:28.718Z,82.60
2018-03-20T22:56:56.157Z,82.50
2018-03-20T22:59:24.365Z,83.40
2018-03-20T23:01:51.832Z,82.70
2018-03-20T23:04:19.372Z,82.60
2018-03-20T23:06:46.777Z,82.60
2018-03-20T23:09:14.299Z,82.60
2018-03-20T23:11:41.748Z,83.60
2018-03-20T23:14:09.185Z,83.00
2018-03-20T23:16:36.632Z,83.20
2018-03-20T23:19:04.830Z,83.40
2018-03-20T23:21:32.301Z,83.30
2018-03-20T23:23:59.752Z,83.50
2018-03-20T23:26:27.185Z,83.50
2018-03-20T23:28:55.918Z,83.50
2018-03-20T23:31:23.366Z,83.50
2018-03-20T23:33:50.826Z,83.50
2018-03-20T23:36:18.292Z,83.40
2018-03-20T23:38:45.733Z,83.30
2018-03-20T23:41:13.152Z,83.30
2018-03-20T23:43:40.589Z,83.10
2018-03-20T23:46:08.845Z,83.20
2018-03-20T23:48:37.798Z,83.30
2018-03-20T23:51:05.216Z,83.20
2018-03-20T23:53:33.444Z,83.50
2018-03-20T23:56:00.883Z,83.50
2018-03-20T23:58:28.360Z,83.60
